Time;durP1;ratioP1;P1;durP2;ratioP2;P2;SDS_P1;SDS_P2;PMS_P1;PMS_P2;Temp;Humidity;BMP_temperature;BMP_pressure;BME280_temperature;BME280_humidity;BME280_pressure;Samples;Min_cycle;Max_cycle;Signal;HPM_P1;HPM_P2
2022/05/02 00:02:18;;;;;;;1.75;1.42;;;8.70;99.90;;;;;;5107483;28;20298;-85
2022/05/02 00:04:45;;;;;;;1.58;1.15;;;8.70;99.90;;;;;;5106716;28;20660;-83
2022/05/02 00:07:13;;;;;;;0.73;0.73;;;8.60;99.90;;;;;;5096361;28;20987;-83
2022/05/02 00:09:42;;;;;;;0.30;0.25;;;8.50;99.90;;;;;;5107715;28;20638;-83
2022/05/02 00:12:10;;;;;;;0.73;0.50;;;8.50;99.90;;;;;;5107975;28;20194;-84
2022/05/02 00:14:39;;;;;;;0.90;0.85;;;8.60;99.90;;;;;;5108090;28;20198;-84
2022/05/02 00:17:07;;;;;;;4.15;1.33;;;8.50;99.90;;;;;;5107458;28;20202;-85
2022/05/02 00:19:34;;;;;;;1.05;0.95;;;8.50;99.90;;;;;;5107940;28;20251;-84
2022/05/02 00:22:02;;;;;;;0.80;0.80;;;8.40;99.90;;;;;;5108044;28;20206;-84
2022/05/02 00:24:32;;;;;;;0.75;0.75;;;8.50;99.90;;;;;;5107520;28;20197;-85
2022/05/02 00:27:00;;;;;;;1.90;1.45;;;8.40;99.90;;;;;;5107523;28;20225;-85
2022/05/02 00:29:28;;;;;;;0.60;0.60;;;8.30;99.90;;;;;;5108012;28;20194;-85
2022/05/02 00:31:57;;;;;;;0.65;0.65;;;8.30;99.90;;;;;;5108074;28;20198;-84
2022/05/02 00:34:24;;;;;;;0.30;0.20;;;8.40;99.90;;;;;;5107948;28;20209;-84
2022/05/02 00:36:52;;;;;;;0.75;0.75;;;8.40;99.90;;;;;;5106871;28;20282;-85
2022/05/02 00:39:19;;;;;;;1.30;1.20;;;8.30;99.90;;;;;;5107418;28;20289;-83
2022/05/02 00:41:47;;;;;;;1.15;1.05;;;8.30;99.90;;;;;;5107923;28;20217;-84
2022/05/02 00:44:14;;;;;;;0.73;0.73;;;8.30;99.90;;;;;;5107843;28;20668;-84
2022/05/02 00:46:42;;;;;;;0.93;0.93;;;8.30;99.90;;;;;;5107558;28;20212;-84
2022/05/02 00:49:08;;;;;;;0.90;0.90;;;8.30;99.90;;;;;;5098600;28;20564;-83
2022/05/02 00:51:35;;;;;;;2.00;1.50;;;8.30;99.90;;;;;;5087711;28;20201;-83
2022/05/02 00:54:02;;;;;;;0.63;0.57;;;8.20;99.90;;;;;;5106663;28;20564;-85
2022/05/02 00:56:30;;;;;;;1.30;1.25;;;8.10;99.90;;;;;;5111829;28;20202;-84
2022/05/02 00:58:59;;;;;;;0.70;0.52;;;8.00;99.90;;;;;;5112545;28;20198;-83
2022/05/02 01:01:26;;;;;;;0.45;0.45;;;8.00;99.90;;;;;;5111028;28;20210;-84
2022/05/02 01:03:53;;;;;;;0.45;0.40;;;8.10;99.90;;;;;;5111069;28;20202;-84
2022/05/02 01:09:05;;;;;;;1.50;0.80;;;8.00;99.90;;;;;;5111679;28;20206;-84
2022/05/02 01:11:32;;;;;;;0.98;0.98;;;8.00;99.90;;;;;;5111742;28;20281;-84
2022/05/02 01:14:01;;;;;;;0.63;0.43;;;8.10;99.90;;;;;;5112673;28;20297;-83
2022/05/02 01:16:30;;;;;;;0.80;0.75;;;8.10;99.90;;;;;;5110981;28;20251;-83
2022/05/02 01:18:58;;;;;;;1.20;1.00;;;8.10;99.90;;;;;;5111856;28;20202;-84
2022/05/02 01:21:29;;;;;;;1.02;0.75;;;8.00;99.90;;;;;;5110691;28;20218;-84
2022/05/02 01:23:59;;;;;;;0.70;0.63;;;8.00;99.90;;;;;;5109167;28;20209;-84
2022/05/02 01:26:27;;;;;;;1.15;0.50;;;8.10;99.90;;;;;;5110590;28;20209;-84
2022/05/02 01:28:56;;;;;;;0.60;0.57;;;8.00;99.90;;;;;;5111722;28;20206;-83
2022/05/02 01:31:24;;;;;;;0.60;0.50;;;8.10;99.90;;;;;;5113242;28;20196;-83
2022/05/02 01:33:52;;;;;;;0.95;0.88;;;8.10;99.90;;;;;;5112857;28;20202;-85
2022/05/02 01:36:21;;;;;;;1.42;0.65;;;8.10;99.90;;;;;;5112470;28;20253;-84
2022/05/02 01:38:51;;;;;;;0.70;0.70;;;8.00;99.90;;;;;;5113282;28;20204;-85
2022/05/02 01:41:18;;;;;;;0.98;0.98;;;8.10;99.90;;;;;;5110858;28;20221;-83
2022/05/02 01:43:45;;;;;;;1.35;1.25;;;8.00;99.90;;;;;;5113501;28;20206;-85
2022/05/02 01:46:14;;;;;;;4.68;1.42;;;8.00;99.90;;;;;;5112991;28;20201;-84
2022/05/02 01:48:41;;;;;;;1.85;1.05;;;8.00;99.90;;;;;;5112823;28;20198;-83
2022/05/02 01:51:08;;;;;;;0.60;0.55;;;8.00;99.90;;;;;;5113152;28;20225;-83
2022/05/02 01:53:35;;;;;;;1.60;1.02;;;8.10;99.90;;;;;;5113138;28;20221;-84
2022/05/02 01:56:04;;;;;;;0.82;0.63;;;8.10;99.90;;;;;;5109893;28;20290;-83
2022/05/02 01:59:00;;;;;;;0.60;0.60;;;8.20;99.90;;;;;;5112404;28;20255;-83
2022/05/02 02:01:27;;;;;;;0.77;0.75;;;8.20;99.90;;;;;;5110754;28;20310;-83
2022/05/02 02:04:00;;;;;;;1.75;1.17;;;8.30;99.90;;;;;;5111073;28;20724;-84
2022/05/02 02:06:27;;;;;;;0.40;0.30;;;8.30;99.90;;;;;;5106605;28;20209;-83
2022/05/02 02:08:54;;;;;;;0.95;0.30;;;8.40;99.90;;;;;;5110671;28;20207;-84
2022/05/02 02:11:23;;;;;;;1.38;0.43;;;8.40;99.90;;;;;;5110979;28;20209;-84
2022/05/02 02:13:50;;;;;;;1.40;0.93;;;8.40;99.90;;;;;;5110323;28;20202;-84
2022/05/02 02:16:17;;;;;;;2.25;1.25;;;8.40;99.90;;;;;;5110260;28;20208;-83
2022/05/02 02:18:44;;;;;;;2.58;1.27;;;8.40;99.90;;;;;;5111029;28;20205;-84
2022/05/02 02:21:12;;;;;;;1.30;0.93;;;8.50;99.90;;;;;;5111335;28;20206;-83
2022/05/02 02:23:39;;;;;;;1.75;1.23;;;8.50;99.90;;;;;;5110615;28;20199;-83
2022/05/02 02:26:07;;;;;;;1.23;1.13;;;8.40;99.90;;;;;;5110523;28;20673;-83
2022/05/02 02:28:35;;;;;;;0.50;0.30;;;8.40;99.90;;;;;;5111071;28;20548;-83
2022/05/02 02:31:02;;;;;;;0.55;0.55;;;8.30;99.90;;;;;;5111481;28;20209;-83
2022/05/02 02:33:29;;;;;;;1.13;1.13;;;8.30;99.90;;;;;;5109965;28;20226;-83
2022/05/02 02:35:56;;;;;;;3.15;2.72;;;8.30;99.90;;;;;;5110343;28;20568;-83
2022/05/02 02:38:23;;;;;;;0.30;0.20;;;8.30;99.90;;;;;;5110333;28;20310;-84
2022/05/02 02:40:50;;;;;;;0.75;0.75;;;8.20;99.90;;;;;;5101092;28;20656;-83
2022/05/02 02:43:17;;;;;;;0.40;0.40;;;8.20;99.90;;;;;;5106519;28;20710;-83
2022/05/02 02:45:45;;;;;;;0.30;0.30;;;8.20;99.90;;;;;;5110214;28;20241;-84
2022/05/02 02:48:12;;;;;;;2.40;1.80;;;8.20;99.90;;;;;;5110168;28;20198;-83
2022/05/02 02:50:39;;;;;;;0.30;0.20;;;8.20;99.90;;;;;;5110918;28;20202;-84
2022/05/02 02:53:06;;;;;;;0.38;0.30;;;8.30;99.90;;;;;;5110898;28;20278;-83
2022/05/02 02:55:34;;;;;;;0.40;0.30;;;8.20;99.90;;;;;;5110536;28;20251;-83
2022/05/02 02:58:01;;;;;;;1.02;0.98;;;8.20;99.90;;;;;;5110324;28;20202;-83
2022/05/02 03:00:28;;;;;;;0.65;0.65;;;8.20;99.90;;;;;;5110722;28;20202;-84
2022/05/02 03:02:56;;;;;;;0.40;0.40;;;8.20;99.90;;;;;;5110721;28;20221;-83
2022/05/02 03:08:09;;;;;;;2.50;1.30;;;8.20;99.90;;;;;;5110561;28;20202;-83
2022/05/02 03:10:37;;;;;;;0.88;0.57;;;8.20;99.90;;;;;;5109869;28;20198;-83
2022/05/02 03:13:04;;;;;;;0.85;0.70;;;8.30;99.90;;;;;;5110090;28;20224;-82
2022/05/02 03:15:33;;;;;;;0.30;0.28;;;8.30;99.90;;;;;;5110305;28;20206;-83
2022/05/02 03:18:01;;;;;;;0.38;0.32;;;8.30;99.90;;;;;;5110264;28;20284;-83
2022/05/02 03:20:28;;;;;;;0.30;0.20;;;8.20;99.90;;;;;;5110940;28;20285;-83
2022/05/02 03:22:55;;;;;;;0.60;0.50;;;8.30;99.90;;;;;;5110819;28;20242;-82
2022/05/02 03:25:21;;;;;;;1.05;0.88;;;8.30;99.90;;;;;;5110382;28;20262;-83
2022/05/02 03:27:48;;;;;;;0.50;0.50;;;8.30;99.90;;;;;;5110185;28;20309;-82
2022/05/02 03:30:15;;;;;;;0.90;0.90;;;8.40;99.90;;;;;;5111193;28;20202;-83
2022/05/02 03:32:42;;;;;;;0.40;0.30;;;8.50;99.90;;;;;;5110122;28;20194;-82
2022/05/02 03:35:11;;;;;;;1.80;0.60;;;8.50;99.90;;;;;;5110648;28;20274;-83
2022/05/02 03:37:38;;;;;;;1.63;1.52;;;8.50;99.90;;;;;;5110594;28;20201;-84
2022/05/02 03:40:06;;;;;;;1.25;1.15;;;8.50;99.90;;;;;;5110382;28;20755;-83
2022/05/02 03:42:33;;;;;;;0.40;0.40;;;8.50;99.90;;;;;;5108561;28;20221;-83
2022/05/02 03:45:01;;;;;;;1.33;0.73;;;8.50;99.90;;;;;;5109395;28;20198;-83
2022/05/02 03:47:28;;;;;;;0.70;0.50;;;8.50;99.90;;;;;;5090227;28;20635;-83
2022/05/02 03:49:55;;;;;;;0.30;0.30;;;8.50;99.90;;;;;;5092190;28;20628;-83
2022/05/02 03:52:23;;;;;;;0.98;0.55;;;8.50;99.90;;;;;;5110911;28;20647;-84
2022/05/02 03:54:50;;;;;;;0.60;0.50;;;8.50;99.90;;;;;;5111083;28;20201;-83
2022/05/02 03:57:17;;;;;;;0.50;0.50;;;8.60;99.90;;;;;;5111560;28;20627;-83
2022/05/02 03:59:45;;;;;;;3.45;1.55;;;8.60;99.90;;;;;;5110996;28;20193;-83
2022/05/02 04:02:12;;;;;;;1.57;0.90;;;8.60;99.90;;;;;;5111902;28;20595;-83
2022/05/02 04:04:39;;;;;;;0.80;0.80;;;8.60;99.90;;;;;;5110730;28;20716;-83
2022/05/02 04:07:06;;;;;;;4.40;3.00;;;8.70;99.90;;;;;;5099075;28;20635;-84
2022/05/02 04:09:34;;;;;;;1.20;0.80;;;8.70;99.90;;;;;;5107850;28;20667;-83
2022/05/02 04:12:01;;;;;;;1.38;0.85;;;8.70;99.90;;;;;;5108692;28;20259;-83
2022/05/02 04:14:28;;;;;;;0.50;0.30;;;8.70;99.90;;;;;;5108500;28;20205;-83
2022/05/02 04:16:55;;;;;;;1.42;1.40;;;8.70;99.90;;;;;;5107844;28;20672;-84
2022/05/02 04:19:22;;;;;;;0.70;0.50;;;8.70;99.90;;;;;;5108699;28;20949;-83
2022/05/02 04:21:49;;;;;;;1.23;1.13;;;8.80;99.90;;;;;;5108260;28;20663;-83
2022/05/02 04:24:17;;;;;;;0.60;0.40;;;8.90;99.90;;;;;;5108214;28;20632;-83
2022/05/02 04:26:46;;;;;;;0.97;0.80;;;8.90;99.90;;;;;;5108239;28;20676;-83
2022/05/02 04:29:25;;;;;;;0.67;0.50;;;8.90;99.90;;;;;;5111523;28;20627;-83
2022/05/02 04:31:58;;;;;;;0.40;0.30;;;8.90;99.90;;;;;;5114222;28;20637;-83
2022/05/02 04:34:26;;;;;;;0.77;0.67;;;9.00;99.90;;;;;;5114942;28;21096;-83
2022/05/02 04:36:53;;;;;;;1.67;1.57;;;9.00;99.90;;;;;;5115175;28;20622;-83
2022/05/02 04:39:20;;;;;;;1.73;0.67;;;9.00;99.90;;;;;;5115773;28;20680;-83
2022/05/02 04:41:48;;;;;;;0.87;0.87;;;9.10;99.90;;;;;;5109689;28;20626;-83
2022/05/02 04:44:15;;;;;;;0.70;0.70;;;9.20;99.90;;;;;;5113343;28;20651;-84
2022/05/02 04:46:42;;;;;;;1.67;0.67;;;9.20;99.90;;;;;;5111364;28;20619;-83
2022/05/02 04:49:09;;;;;;;0.73;0.40;;;9.20;99.90;;;;;;5112675;28;21021;-83
2022/05/02 04:51:35;;;;;;;1.10;1.03;;;9.40;99.90;;;;;;5112523;28;20647;-83
2022/05/02 04:54:02;;;;;;;0.47;0.37;;;9.50;99.90;;;;;;5112268;28;20722;-83
2022/05/02 04:56:29;;;;;;;2.20;1.60;;;9.50;99.90;;;;;;5111897;28;20623;-83
2022/05/02 04:58:57;;;;;;;1.70;1.50;;;9.50;99.90;;;;;;5112279;28;21005;-83
2022/05/02 05:01:25;;;;;;;1.73;1.63;;;9.60;99.90;;;;;;5111804;28;21029;-83
2022/05/02 05:03:51;;;;;;;0.80;0.80;;;9.40;99.90;;;;;;5109830;28;21254;-83
2022/05/02 05:06:19;;;;;;;0.73;0.63;;;9.50;99.90;;;;;;5095884;28;21002;-82
2022/05/02 05:08:45;;;;;;;0.87;0.60;;;9.50;99.90;;;;;;5102830;28;21010;-82
2022/05/02 05:11:31;;;;;;;0.50;0.50;;;9.50;99.90;;;;;;5110960;28;20654;-84
2022/05/02 05:17:14;;;;;;;0.40;0.40;;;9.50;99.90;;;;;;5093814;28;20616;-84
2022/05/02 05:20:15;;;;;;;1.13;0.70;;;9.60;99.90;;;;;;5111002;28;20676;-83
2022/05/02 05:23:15;;;;;;;0.87;0.87;;;9.60;99.90;;;;;;5068135;28;21089;-82
2022/05/02 05:25:49;;;;;;;2.23;1.53;;;9.60;99.90;;;;;;5045270;28;20694;-83
2022/05/02 05:28:40;;;;;;;1.43;1.33;;;9.70;99.90;;;;;;5095693;28;20692;-84
2022/05/02 05:31:23;;;;;;;0.97;0.87;;;9.70;99.90;;;;;;5110080;27;20635;-84
2022/05/02 05:33:52;;;;;;;1.90;1.37;;;9.80;99.90;;;;;;5111662;28;20692;-84
2022/05/02 05:36:25;;;;;;;0.60;0.60;;;9.80;99.90;;;;;;5111219;28;21011;-83
2022/05/02 05:39:02;;;;;;;2.20;2.00;;;10.00;99.90;;;;;;5111110;28;20631;-84
2022/05/02 05:41:41;;;;;;;0.53;0.53;;;10.10;99.90;;;;;;5111503;28;20726;-83
2022/05/02 05:44:22;;;;;;;1.10;1.10;;;10.10;99.90;;;;;;5111767;28;20666;-83
2022/05/02 05:47:09;;;;;;;0.50;0.47;;;10.20;99.90;;;;;;5098009;28;20621;-83
2022/05/02 05:49:47;;;;;;;0.47;0.30;;;10.10;99.90;;;;;;5111714;28;20639;-82
2022/05/02 05:52:24;;;;;;;0.73;0.73;;;10.30;99.90;;;;;;5111239;28;21200;-82
2022/05/02 05:55:04;;;;;;;2.63;2.30;;;10.40;99.90;;;;;;5094810;28;20768;-82
2022/05/02 05:57:37;;;;;;;2.03;1.20;;;10.40;99.90;;;;;;5109072;28;20627;-82
2022/05/02 06:00:09;;;;;;;1.17;1.03;;;10.50;99.90;;;;;;5110383;28;20631;-83
2022/05/02 06:03:03;;;;;;;4.90;2.50;;;10.70;99.90;;;;;;5110259;28;21283;-84
2022/05/02 06:05:30;;;;;;;1.23;1.03;;;10.80;99.90;;;;;;5109712;28;21222;-83
2022/05/02 06:07:57;;;;;;;2.03;1.10;;;10.80;99.90;;;;;;5110114;28;20731;-83
2022/05/02 06:10:25;;;;;;;1.17;0.70;;;10.90;99.90;;;;;;5109909;28;20644;-82
2022/05/02 06:12:55;;;;;;;2.00;1.80;;;11.00;99.90;;;;;;5110391;28;20625;-83
2022/05/02 06:18:30;;;;;;;1.70;1.20;;;11.10;99.90;;;;;;5109574;28;21047;-83
2022/05/02 06:21:00;;;;;;;1.13;0.73;;;11.20;99.90;;;;;;5109343;28;20695;-83
2022/05/02 06:23:30;;;;;;;0.50;0.50;;;11.10;99.90;;;;;;5110058;28;20653;-83
2022/05/02 06:25:57;;;;;;;1.20;1.20;;;11.00;99.90;;;;;;5107481;28;20620;-83
2022/05/02 06:28:31;;;;;;;0.93;0.87;;;11.00;99.90;;;;;;5125799;27;20987;-83
2022/05/02 06:31:01;;;;;;;1.70;1.57;;;11.10;99.90;;;;;;5109950;28;20625;-83
2022/05/02 06:33:31;;;;;;;4.37;2.73;;;11.10;99.90;;;;;;5110436;28;20720;-83
2022/05/02 06:36:22;;;;;;;1.23;1.23;;;11.10;99.90;;;;;;5109654;28;20978;-82
2022/05/02 06:39:00;;;;;;;2.30;1.97;;;11.20;99.90;;;;;;5100787;28;20628;-82
2022/05/02 06:41:51;;;;;;;1.07;1.03;;;11.30;99.90;;;;;;5109428;28;20631;-83
2022/05/02 06:44:27;;;;;;;1.13;1.03;;;11.30;99.90;;;;;;5110161;28;20697;-83
2022/05/02 06:47:00;;;;;;;2.87;2.20;;;11.30;99.90;;;;;;5109336;28;21034;-83
2022/05/02 06:49:33;;;;;;;1.03;1.00;;;11.40;99.90;;;;;;5109778;28;20621;-82
2022/05/02 06:52:02;;;;;;;5.00;2.70;;;11.40;99.90;;;;;;5109552;28;21389;-83
2022/05/02 06:54:46;;;;;;;1.97;1.87;;;11.40;99.90;;;;;;5109606;28;20630;-82
2022/05/02 06:57:29;;;;;;;0.70;0.63;;;11.60;99.90;;;;;;5102884;28;20639;-83
2022/05/02 07:00:05;;;;;;;2.00;1.80;;;11.60;99.90;;;;;;5109904;28;20628;-83
2022/05/02 07:03:05;;;;;;;3.73;3.43;;;11.70;99.90;;;;;;5110717;28;20656;-83
2022/05/02 07:05:46;;;;;;;0.30;0.30;;;11.70;99.90;;;;;;5099726;28;20705;-82
2022/05/02 07:08:19;;;;;;;1.03;0.90;;;11.70;99.90;;;;;;5101341;28;20653;-83
2022/05/02 07:10:51;;;;;;;1.87;1.63;;;11.90;99.90;;;;;;5108789;28;20673;-83
2022/05/02 07:13:32;;;;;;;1.33;0.83;;;12.00;99.90;;;;;;5109919;28;20614;-83
2022/05/02 07:16:09;;;;;;;9.03;2.60;;;12.20;99.90;;;;;;5107848;28;20954;-82
2022/05/02 07:18:46;;;;;;;1.00;0.97;;;12.30;99.90;;;;;;5109739;28;20948;-83
2022/05/02 07:21:27;;;;;;;1.87;1.77;;;12.40;99.90;;;;;;5101492;28;20631;-83
2022/05/02 07:24:13;;;;;;;1.63;1.23;;;12.60;99.70;;;;;;5107257;28;20758;-83
2022/05/02 07:26:42;;;;;;;2.17;1.37;;;12.50;98.90;;;;;;5109250;28;20630;-83
2022/05/02 07:29:11;;;;;;;2.17;1.90;;;12.70;99.60;;;;;;5109495;28;21172;-83
2022/05/02 07:31:40;;;;;;;1.80;1.70;;;12.90;99.20;;;;;;5109357;28;20619;-83
2022/05/02 07:34:12;;;;;;;3.90;1.80;;;13.00;99.20;;;;;;5109626;28;20695;-83
2022/05/02 07:36:41;;;;;;;2.10;2.00;;;13.00;98.80;;;;;;5108646;28;20651;-82
2022/05/02 07:39:08;;;;;;;1.53;1.47;;;13.20;99.10;;;;;;5108826;28;20709;-83
2022/05/02 07:41:36;;;;;;;1.43;1.33;;;13.30;98.90;;;;;;5108913;28;20623;-83
2022/05/02 07:44:05;;;;;;;1.17;0.70;;;13.50;98.50;;;;;;5108692;28;21213;-83
2022/05/02 07:46:37;;;;;;;1.00;0.90;;;13.30;98.50;;;;;;5107981;28;20629;-83
2022/05/02 07:49:05;;;;;;;1.47;1.20;;;13.40;98.30;;;;;;5089409;28;20650;-83
2022/05/02 07:51:33;;;;;;;2.90;1.67;;;13.60;98.00;;;;;;5088907;28;20730;-83
2022/05/02 07:54:02;;;;;;;0.70;0.70;;;13.60;98.10;;;;;;5107210;28;21495;-83
2022/05/02 07:56:32;;;;;;;1.17;1.07;;;13.70;97.50;;;;;;5102220;28;20613;-83
2022/05/02 07:59:00;;;;;;;3.70;2.43;;;13.70;96.90;;;;;;5110125;28;20960;-84
2022/05/02 08:01:27;;;;;;;3.43;1.83;;;13.60;97.20;;;;;;5109610;28;20629;-83
2022/05/02 08:03:54;;;;;;;1.77;1.37;;;13.80;97.80;;;;;;5112001;28;21063;-84
2022/05/02 08:06:41;;;;;;;1.47;1.40;;;14.00;97.00;;;;;;5103897;28;21244;-83
2022/05/02 08:09:24;;;;;;;2.20;1.60;;;14.30;97.20;;;;;;5113348;28;20632;-83
2022/05/02 08:11:59;;;;;;;4.20;2.27;;;14.60;96.50;;;;;;5112793;28;20722;-83
2022/05/02 08:14:37;;;;;;;1.53;0.87;;;15.20;95.90;;;;;;5113954;28;21008;-84
2022/05/02 08:17:23;;;;;;;0.63;0.63;;;14.90;93.50;;;;;;5112726;28;20622;-82
2022/05/02 08:19:59;;;;;;;3.27;1.83;;;15.00;94.30;;;;;;5113316;28;20669;-83
2022/05/02 08:28:27;;;;;;;1.70;0.83;;;15.30;91.30;;;;;;5111602;27;20651;-83
2022/05/02 08:31:08;;;;;;;2.60;1.43;;;14.90;91.60;;;;;;5112521;28;21020;-83
2022/05/02 08:33:36;;;;;;;2.70;2.00;;;14.80;92.10;;;;;;5102096;28;21207;-83
2022/05/02 08:36:10;;;;;;;3.10;2.80;;;15.10;91.50;;;;;;5111424;28;20628;-83
2022/05/02 08:38:44;;;;;;;1.37;1.27;;;15.30;91.90;;;;;;5112608;28;20621;-84
2022/05/02 08:41:59;;;;;;;0.80;0.80;;;15.50;90.90;;;;;;5105317;28;21195;-84
2022/05/02 08:45:22;;;;;;;1.90;1.80;;;15.50;90.30;;;;;;5063359;28;20659;-83
2022/05/02 08:48:15;;;;;;;1.33;1.17;;;15.40;90.60;;;;;;5069690;28;20651;-84
2022/05/02 08:51:15;;;;;;;0.83;0.77;;;15.70;91.30;;;;;;5067520;28;20710;-84
2022/05/02 08:54:14;;;;;;;3.20;1.87;;;15.90;90.90;;;;;;5092485;28;20667;-84
2022/05/02 08:56:58;;;;;;;2.47;1.20;;;16.00;89.70;;;;;;5107452;28;20635;-83
2022/05/02 08:59:52;;;;;;;3.47;1.60;;;16.20;88.70;;;;;;5112678;28;20623;-83
2022/05/02 09:03:08;;;;;;;0.97;0.93;;;16.50;88.60;;;;;;5104956;28;21243;-84
2022/05/02 09:05:46;;;;;;;1.57;1.23;;;16.80;84.30;;;;;;5102605;28;20659;-83
2022/05/02 09:08:50;;;;;;;2.07;1.73;;;17.00;84.70;;;;;;5111582;28;20666;-83
2022/05/02 09:11:33;;;;;;;2.50;1.37;;;17.10;84.90;;;;;;5106019;28;20627;-84
2022/05/02 09:14:23;;;;;;;0.93;0.90;;;17.20;84.80;;;;;;5111925;28;20645;-83
2022/05/02 09:17:17;;;;;;;1.10;1.00;;;17.30;78.20;;;;;;5112082;28;20627;-84
2022/05/02 09:20:15;;;;;;;1.40;1.30;;;17.40;79.50;;;;;;5101809;28;20626;-83
2022/05/02 09:23:22;;;;;;;0.60;0.60;;;17.50;75.60;;;;;;5102971;28;20734;-84
2022/05/02 09:26:19;;;;;;;0.80;0.57;;;17.50;75.40;;;;;;5125519;27;20680;-82
2022/05/02 09:29:00;;;;;;;0.63;0.63;;;17.50;75.40;;;;;;5075795;28;21078;-84
2022/05/02 09:31:41;;;;;;;2.50;1.97;;;17.40;73.80;;;;;;5096231;28;20684;-84
2022/05/02 09:34:18;;;;;;;1.13;1.13;;;17.50;73.10;;;;;;5110341;28;21050;-83
2022/05/02 09:37:02;;;;;;;1.80;1.03;;;17.50;74.40;;;;;;5111562;28;20637;-83
2022/05/02 09:39:47;;;;;;;0.93;0.87;;;17.50;76.70;;;;;;5112045;28;20623;-82
2022/05/02 09:42:44;;;;;;;0.67;0.63;;;17.80;76.20;;;;;;5093637;28;20624;-83
2022/05/02 09:51:48;;;;;;;1.50;0.90;;;18.00;71.60;;;;;;5111193;28;20702;-82
2022/05/02 09:57:31;;;;;;;3.20;1.80;;;18.00;73.10;;;;;;5109670;28;20619;-85
2022/05/02 10:02:48;;;;;;;1.00;1.00;;;18.10;71.20;;;;;;5110337;28;20623;-83
2022/05/02 10:05:26;;;;;;;2.20;1.77;;;17.60;74.70;;;;;;5103066;28;20648;-84
2022/05/02 10:07:59;;;;;;;2.87;2.13;;;17.40;74.30;;;;;;5104410;28;20622;-83
2022/05/02 10:10:35;;;;;;;2.77;1.77;;;17.30;75.40;;;;;;5109945;27;21331;-84
2022/05/02 10:13:12;;;;;;;1.17;1.10;;;17.30;73.90;;;;;;5107870;28;20619;-83
2022/05/02 10:15:57;;;;;;;1.17;0.97;;;17.20;74.60;;;;;;5102941;28;20742;-84
2022/05/02 10:18:52;;;;;;;1.37;1.27;;;17.20;74.10;;;;;;5109024;28;20623;-84
2022/05/02 10:21:42;;;;;;;1.47;1.37;;;17.50;70.90;;;;;;5107634;28;20627;-83
2022/05/02 10:24:40;;;;;;;3.83;1.87;;;17.60;71.20;;;;;;5090066;28;20644;-83
2022/05/02 10:27:33;;;;;;;1.50;1.30;;;18.00;70.80;;;;;;5101392;28;21171;-83
2022/05/02 10:30:06;;;;;;;1.67;1.53;;;18.10;71.80;;;;;;5097766;28;20632;-84
2022/05/02 10:32:43;;;;;;;4.07;1.40;;;18.00;71.20;;;;;;5125467;27;20634;-83
2022/05/02 10:35:12;;;;;;;3.20;2.07;;;17.80;71.00;;;;;;5110086;28;20612;-84
2022/05/02 10:37:42;;;;;;;0.87;0.80;;;17.80;70.30;;;;;;5109866;28;20631;-84
2022/05/02 10:40:12;;;;;;;2.00;1.80;;;17.70;69.60;;;;;;5109136;28;20755;-84
2022/05/02 10:42:46;;;;;;;2.43;1.37;;;17.50;68.40;;;;;;5109477;28;20293;-84
2022/05/02 10:45:15;;;;;;;2.57;1.97;;;17.40;72.10;;;;;;5109299;28;20727;-84
2022/05/02 10:47:46;;;;;;;1.50;1.03;;;17.80;70.30;;;;;;5102053;28;20628;-84
2022/05/02 10:50:18;;;;;;;1.10;1.00;;;18.20;69.40;;;;;;5089985;28;20727;-84
2022/05/02 10:52:55;;;;;;;1.57;1.47;;;18.50;67.10;;;;;;5101431;28;21200;-83
2022/05/02 10:55:26;;;;;;;1.27;1.20;;;18.50;67.40;;;;;;5109341;28;20615;-83
2022/05/02 10:57:56;;;;;;;1.67;1.57;;;18.50;67.90;;;;;;5109315;28;20679;-85
2022/05/02 11:00:24;;;;;;;1.43;1.33;;;18.50;66.10;;;;;;5100535;28;20804;-84
2022/05/02 11:03:06;;;;;;;1.53;0.93;;;18.70;66.10;;;;;;5109167;28;20646;-83
2022/05/02 11:05:41;;;;;;;2.03;1.53;;;19.00;66.00;;;;;;5101243;28;20667;-85
2022/05/02 11:08:09;;;;;;;1.17;1.07;;;19.30;64.30;;;;;;5104168;28;20623;-85
2022/05/02 11:10:43;;;;;;;1.87;1.77;;;19.10;63.60;;;;;;5109612;28;20615;-84
2022/05/02 11:13:20;;;;;;;2.10;1.33;;;18.90;62.70;;;;;;5107813;28;21176;-84
2022/05/02 11:16:14;;;;;;;1.67;1.57;;;18.60;65.00;;;;;;5108686;28;20685;-84
2022/05/02 11:21:51;;;;;;;1.07;1.00;;;18.70;66.20;;;;;;5109032;28;20616;-84
2022/05/02 11:24:37;;;;;;;1.80;1.47;;;19.10;65.20;;;;;;5109431;28;20657;-84
2022/05/02 11:27:20;;;;;;;1.33;1.20;;;19.50;63.40;;;;;;5107925;28;20631;-83
2022/05/02 11:30:01;;;;;;;1.53;1.10;;;19.90;62.20;;;;;;5108989;28;20670;-85
2022/05/02 11:32:47;;;;;;;1.90;1.63;;;20.60;58.60;;;;;;5109281;28;20611;-83
2022/05/02 11:35:17;;;;;;;0.97;0.90;;;20.60;59.80;;;;;;5108144;28;20616;-83
2022/05/02 11:37:55;;;;;;;0.97;0.97;;;20.70;58.80;;;;;;5108409;28;21522;-84
2022/05/02 11:40:28;;;;;;;1.63;1.40;;;20.70;58.80;;;;;;5104471;28;21037;-85
2022/05/02 11:42:55;;;;;;;2.73;1.40;;;20.60;58.30;;;;;;5093218;28;20630;-85
2022/05/02 11:45:33;;;;;;;1.30;1.20;;;20.20;59.20;;;;;;5108390;28;20654;-84
2022/05/02 11:48:18;;;;;;;1.13;1.03;;;19.90;60.00;;;;;;5106928;28;21234;-84
2022/05/02 11:50:46;;;;;;;1.63;1.53;;;19.50;59.90;;;;;;5088965;28;20624;-84
2022/05/02 11:53:16;;;;;;;0.60;0.60;;;19.10;62.20;;;;;;5088969;28;21142;-83
2022/05/02 11:55:44;;;;;;;0.80;0.80;;;19.00;62.30;;;;;;5107104;28;21020;-84
2022/05/02 11:58:26;;;;;;;1.13;0.80;;;18.90;61.20;;;;;;5108231;28;20626;-85
2022/05/02 12:01:02;;;;;;;0.90;0.90;;;18.80;60.80;;;;;;5109250;28;20643;-85
2022/05/02 12:03:47;;;;;;;1.33;0.70;;;19.20;63.90;;;;;;5108503;28;20629;-83
2022/05/02 12:06:16;;;;;;;0.90;0.90;;;20.60;60.80;;;;;;5094813;28;20751;-84
2022/05/02 12:08:47;;;;;;;2.23;1.40;;;20.80;58.70;;;;;;5101857;28;20631;-84
2022/05/02 12:11:15;;;;;;;1.40;1.30;;;20.40;58.30;;;;;;5109312;28;20638;-84
2022/05/02 12:13:45;;;;;;;1.90;1.80;;;20.20;58.30;;;;;;5108912;28;20699;-85
2022/05/02 12:16:15;;;;;;;2.80;1.57;;;20.00;59.10;;;;;;5108432;28;20619;-84
2022/05/02 12:18:45;;;;;;;1.37;1.27;;;19.80;58.80;;;;;;5090959;28;20626;-85
2022/05/02 12:21:20;;;;;;;1.63;1.00;;;20.70;58.90;;;;;;5088432;28;20593;-84
2022/05/02 12:23:48;;;;;;;2.07;1.37;;;22.20;58.90;;;;;;5105322;28;20648;-84
2022/05/02 12:26:18;;;;;;;1.37;1.33;;;23.20;56.50;;;;;;5107851;28;20736;-85
2022/05/02 12:28:47;;;;;;;1.60;1.40;;;23.00;55.00;;;;;;5108692;28;20619;-84
2022/05/02 12:31:18;;;;;;;1.37;1.27;;;22.50;55.00;;;;;;5108139;28;20731;-85
2022/05/02 12:33:50;;;;;;;1.93;1.30;;;22.10;54.00;;;;;;5108498;28;20766;-84
2022/05/02 12:36:19;;;;;;;1.33;0.97;;;21.70;55.40;;;;;;5107889;28;20692;-84
2022/05/02 12:38:55;;;;;;;1.23;1.13;;;22.50;55.30;;;;;;5108439;28;20622;-84
2022/05/02 12:41:25;;;;;;;1.60;1.50;;;23.50;54.90;;;;;;5098500;28;20631;-84
2022/05/02 12:43:55;;;;;;;2.30;2.00;;;24.50;54.10;;;;;;5108144;28;20672;-85
2022/05/02 12:46:32;;;;;;;1.53;1.40;;;25.60;54.00;;;;;;5105567;28;20655;-85
2022/05/02 12:49:05;;;;;;;1.47;1.37;;;26.90;50.10;;;;;;5094130;28;20644;-85
2022/05/02 12:51:33;;;;;;;1.40;1.30;;;27.60;48.70;;;;;;5112356;28;20734;-85
2022/05/02 12:54:13;;;;;;;1.20;1.10;;;27.20;47.50;;;;;;5111915;28;20630;-86
2022/05/02 13:02:38;;;;;;;1.20;1.10;;;27.30;44.70;;;;;;5111374;28;20614;-85
2022/05/02 13:05:11;;;;;;;1.83;1.57;;;25.80;45.70;;;;;;5106984;28;20655;-84
2022/05/02 13:07:44;;;;;;;1.27;1.20;;;24.70;47.40;;;;;;5108270;28;20730;-85
2022/05/02 13:10:23;;;;;;;1.47;1.37;;;24.10;48.60;;;;;;5111466;28;20726;-85
2022/05/02 13:13:03;;;;;;;1.50;1.37;;;23.40;49.50;;;;;;5111199;28;20619;-84
2022/05/02 13:15:33;;;;;;;1.20;1.10;;;22.90;50.20;;;;;;5110969;28;20933;-84
2022/05/02 13:18:04;;;;;;;1.00;0.80;;;22.90;51.30;;;;;;5109669;28;20616;-85
2022/05/02 13:20:32;;;;;;;1.17;1.17;;;22.90;51.40;;;;;;5110735;27;20680;-85
2022/05/02 13:23:07;;;;;;;0.83;0.83;;;24.30;50.90;;;;;;5110355;28;20630;-84
2022/05/02 13:25:58;;;;;;;1.90;1.63;;;25.80;48.80;;;;;;5108423;28;20658;-85
2022/05/02 13:28:27;;;;;;;1.53;1.43;;;25.70;46.00;;;;;;5097700;28;20718;-85
2022/05/02 13:31:01;;;;;;;0.70;0.63;;;24.50;48.00;;;;;;5109326;28;20763;-84
2022/05/02 13:33:35;;;;;;;0.60;0.53;;;24.20;47.70;;;;;;5111104;28;20623;-85
2022/05/02 13:36:05;;;;;;;1.60;1.50;;;24.70;49.00;;;;;;5110274;28;20744;-85
2022/05/02 13:38:44;;;;;;;1.60;1.50;;;24.40;48.00;;;;;;5111151;28;20611;-84
2022/05/02 13:41:24;;;;;;;1.40;1.30;;;23.80;48.90;;;;;;5111008;28;20686;-86
2022/05/02 13:44:03;;;;;;;1.67;1.57;;;22.90;49.50;;;;;;5111652;28;20950;-85
2022/05/02 13:46:41;;;;;;;1.27;1.10;;;22.20;50.90;;;;;;5109723;28;20651;-84
2022/05/02 13:49:19;;;;;;;1.50;1.43;;;21.80;52.00;;;;;;5110428;28;20654;-84
2022/05/02 13:51:56;;;;;;;0.73;0.73;;;21.50;50.90;;;;;;5109307;28;20633;-85
2022/05/02 13:54:29;;;;;;;1.73;0.80;;;21.30;52.00;;;;;;5110891;28;20637;-86
2022/05/02 13:57:09;;;;;;;1.17;0.90;;;21.10;52.10;;;;;;5108581;28;20619;-85
2022/05/02 13:59:46;;;;;;;1.80;0.87;;;20.80;52.90;;;;;;5090917;28;20612;-85
2022/05/02 14:02:35;;;;;;;1.13;1.03;;;20.50;54.20;;;;;;5108679;28;20634;-84
2022/05/02 14:05:12;;;;;;;0.73;0.73;;;20.50;53.90;;;;;;5107854;28;20619;-84